createdAt,value
2023-03-17T00:00:45.460Z,1.13
2023-03-17T00:03:22.864Z,1.20
2023-03-17T00:05:53.372Z,1.10
2023-03-17T00:08:27.216Z,1.20
2023-03-17T00:10:56.261Z,1.20
2023-03-17T00:13:25.046Z,1.37
2023-03-17T00:16:00.187Z,1.43
2023-03-17T00:18:30.416Z,1.37
2023-03-17T00:20:59.843Z,1.13
2023-03-17T00:23:29.874Z,1.30
2023-03-17T00:25:58.059Z,1.23
2023-03-17T00:28:28.787Z,1.50
2023-03-17T00:31:00.827Z,1.37
2023-03-17T00:33:33.118Z,1.30
2023-03-17T00:36:02.092Z,1.00
2023-03-17T00:38:31.808Z,1.27
2023-03-17T00:41:00.146Z,1.10
2023-03-17T00:43:30.585Z,1.13
2023-03-17T00:45:59.003Z,1.20
2023-03-17T00:48:29.823Z,1.10
2023-03-17T00:50:57.994Z,1.70
2023-03-17T00:53:31.385Z,1.20
2023-03-17T00:56:00.786Z,1.70
2023-03-17T00:58:32.597Z,1.10
2023-03-17T01:01:02.210Z,1.10
2023-03-17T01:03:30.998Z,1.13
2023-03-17T01:05:59.561Z,1.10
2023-03-17T01:08:29.990Z,1.33
2023-03-17T01:11:00.396Z,1.47
2023-03-17T01:13:29.188Z,1.70
2023-03-17T01:15:57.673Z,1.40
2023-03-17T01:18:27.027Z,1.50
2023-03-17T01:20:55.239Z,1.10
2023-03-17T01:23:23.532Z,1.03
2023-03-17T01:25:51.731Z,1.67
2023-03-17T01:28:22.089Z,1.60
2023-03-17T01:30:51.013Z,1.47
2023-03-17T01:33:19.313Z,1.20
2023-03-17T01:35:47.506Z,1.50
2023-03-17T01:38:16.204Z,1.30
2023-03-17T01:40:49.435Z,1.43
2023-03-17T01:43:23.985Z,1.40
2023-03-17T01:46:25.762Z,1.30
2023-03-17T01:49:19.266Z,1.40
2023-03-17T01:52:06.160Z,1.33
2023-03-17T01:54:40.877Z,1.40
2023-03-17T01:57:14.618Z,1.17
2023-03-17T01:59:51.340Z,1.60
2023-03-17T02:02:25.560Z,1.50
2023-03-17T02:04:54.313Z,1.70
2023-03-17T02:07:26.529Z,1.50
2023-03-17T02:09:57.045Z,1.60
2023-03-17T02:12:30.254Z,1.47
2023-03-17T02:15:00.064Z,1.57
2023-03-17T02:17:29.954Z,1.43
2023-03-17T02:19:58.339Z,1.20
2023-03-17T02:22:28.228Z,1.40
2023-03-17T02:25:00.742Z,1.43
2023-03-17T02:27:34.950Z,1.40
2023-03-17T02:30:03.267Z,1.23
2023-03-17T02:32:31.451Z,1.40
2023-03-17T02:34:59.648Z,1.70
2023-03-17T02:37:29.289Z,1.37
2023-03-17T02:39:57.761Z,1.20
2023-03-17T02:42:25.937Z,1.80
2023-03-17T02:44:54.184Z,1.47
2023-03-17T02:47:22.632Z,2.23
2023-03-17T02:49:51.384Z,1.50
2023-03-17T02:52:19.660Z,1.40
2023-03-17T02:54:49.416Z,1.30
2023-03-17T02:57:17.627Z,1.53
2023-03-17T02:59:45.812Z,1.87
2023-03-17T03:02:14.202Z,1.60
2023-03-17T03:04:43.050Z,1.63
2023-03-17T03:07:12.494Z,1.63
2023-03-17T03:09:41.937Z,1.60
2023-03-17T03:12:12.066Z,1.30
2023-03-17T03:14:40.827Z,1.53
2023-03-17T03:17:09.622Z,1.40
2023-03-17T03:19:38.143Z,1.60
2023-03-17T03:22:06.510Z,1.43
2023-03-17T03:24:34.712Z,1.53
2023-03-17T03:27:02.909Z,1.30
2023-03-17T03:29:32.430Z,1.47
2023-03-17T03:32:00.729Z,1.57
2023-03-17T03:34:29.136Z,1.13
2023-03-17T03:36:57.493Z,1.10
2023-03-17T03:39:25.705Z,1.40
2023-03-17T03:41:57.224Z,1.53
2023-03-17T03:44:25.901Z,1.50
2023-03-17T03:46:55.387Z,1.30
2023-03-17T03:49:24.334Z,1.47
2023-03-17T03:51:52.486Z,1.40
2023-03-17T03:54:20.758Z,1.20
2023-03-17T03:56:48.899Z,1.30
2023-03-17T03:59:17.316Z,1.47
2023-03-17T04:01:45.650Z,1.60
2023-03-17T04:04:15.382Z,1.50
2023-03-17T04:06:43.564Z,1.40
2023-03-17T04:09:12.616Z,1.60
2023-03-17T04:11:40.795Z,1.50
2023-03-17T04:14:08.959Z,1.40
2023-03-17T04:16:37.181Z,1.50
2023-03-17T04:19:05.434Z,1.70
2023-03-17T04:21:34.954Z,1.57
2023-03-17T04:24:05.106Z,2.17
2023-03-17T04:26:33.421Z,1.57
2023-03-17T04:29:01.647Z,1.63
2023-03-17T04:31:29.788Z,1.53
2023-03-17T04:33:57.946Z,1.93
2023-03-17T04:36:27.026Z,2.10
2023-03-17T04:38:56.540Z,1.77
2023-03-17T04:41:24.679Z,1.47
2023-03-17T04:43:52.762Z,1.90
2023-03-17T04:46:20.856Z,1.93
2023-03-17T04:48:48.980Z,1.60
2023-03-17T04:51:17.193Z,1.97
2023-03-17T04:53:46.180Z,1.40
2023-03-17T04:56:16.120Z,1.40
2023-03-17T04:58:44.355Z,1.80
2023-03-17T05:01:12.625Z,1.43
2023-03-17T05:03:41.122Z,1.80
2023-03-17T05:06:09.438Z,2.77
2023-03-17T05:08:37.889Z,1.83
2023-03-17T05:11:06.636Z,1.60
2023-03-17T05:13:36.221Z,1.50
2023-03-17T05:16:04.694Z,1.90
2023-03-17T05:18:32.847Z,1.80
2023-03-17T05:21:01.109Z,1.80
2023-03-17T05:23:29.492Z,1.77
2023-03-17T05:25:57.658Z,1.60
2023-03-17T05:28:26.667Z,1.40
2023-03-17T05:30:56.688Z,1.33
2023-03-17T05:33:24.904Z,1.70
2023-03-17T05:35:53.795Z,1.57
2023-03-17T05:38:21.969Z,1.50
2023-03-17T05:40:52.805Z,1.43
2023-03-17T05:43:20.997Z,1.37
2023-03-17T05:45:50.494Z,1.70
2023-03-17T05:48:20.004Z,2.00
2023-03-17T05:50:48.434Z,1.93
2023-03-17T05:53:17.387Z,1.57
2023-03-17T05:55:48.124Z,2.27
2023-03-17T05:58:16.990Z,1.63
2023-03-17T06:00:45.447Z,1.43
2023-03-17T06:03:13.992Z,2.10
2023-03-17T06:05:43.610Z,1.70
2023-03-17T06:08:12.218Z,2.20
2023-03-17T06:10:41.260Z,1.70
2023-03-17T06:13:09.523Z,1.90
2023-03-17T06:15:37.983Z,1.70
2023-03-17T06:18:07.399Z,1.50
2023-03-17T06:20:36.623Z,2.30
2023-03-17T06:23:06.810Z,1.70
2023-03-17T06:25:37.010Z,1.47
2023-03-17T06:28:06.699Z,1.37
2023-03-17T06:30:38.742Z,1.57
2023-03-17T06:33:08.424Z,1.50
2023-03-17T06:35:37.218Z,1.47
2023-03-17T06:38:06.996Z,1.70
2023-03-17T06:40:35.123Z,1.77
2023-03-17T06:43:03.438Z,1.70
2023-03-17T06:45:33.738Z,1.87
2023-03-17T06:48:02.330Z,1.57
2023-03-17T06:50:30.757Z,1.30
2023-03-17T06:52:58.896Z,1.60
2023-03-17T06:55:29.073Z,1.60
2023-03-17T06:57:58.933Z,1.70
2023-03-17T07:00:28.271Z,1.60
2023-03-17T07:02:56.471Z,1.40
2023-03-17T07:05:24.815Z,1.33
2023-03-17T07:07:53.471Z,1.50
2023-03-17T07:10:23.076Z,1.87
2023-03-17T07:12:52.771Z,1.57
2023-03-17T07:15:22.020Z,1.40
2023-03-17T07:17:50.282Z,1.20
2023-03-17T07:20:18.951Z,1.90
2023-03-17T07:22:47.091Z,1.40
2023-03-17T07:25:15.366Z,1.47
2023-03-17T07:27:43.558Z,1.43
2023-03-17T07:30:18.760Z,1.77
2023-03-17T07:32:47.577Z,1.27
2023-03-17T07:35:16.385Z,1.63
2023-03-17T07:37:44.585Z,1.60
2023-03-17T07:40:13.904Z,1.40
2023-03-17T07:42:42.297Z,1.70
2023-03-17T07:45:12.979Z,1.10
2023-03-17T07:47:41.576Z,1.80
2023-03-17T07:50:11.149Z,1.40
2023-03-17T07:52:39.430Z,1.70
2023-03-17T07:55:10.574Z,1.30
2023-03-17T07:57:39.049Z,1.20
2023-03-17T08:00:10.640Z,1.40
2023-03-17T08:02:42.801Z,1.40
2023-03-17T08:05:12.109Z,1.30
2023-03-17T08:07:40.468Z,1.27
2023-03-17T08:10:11.675Z,1.60
2023-03-17T08:12:41.651Z,1.47
2023-03-17T08:15:11.268Z,1.33
2023-03-17T08:17:40.160Z,1.20
2023-03-17T08:20:12.236Z,1.60
2023-03-17T08:22:40.650Z,1.33
2023-03-17T08:25:11.484Z,1.47
2023-03-17T08:27:40.043Z,1.30
2023-03-17T08:30:10.055Z,1.20
2023-03-17T08:32:38.492Z,0.93
2023-03-17T08:35:11.752Z,1.40
2023-03-17T08:37:39.955Z,1.73
2023-03-17T08:40:09.974Z,1.10
2023-03-17T08:42:38.524Z,1.33
2023-03-17T08:45:07.872Z,1.20
2023-03-17T08:47:36.060Z,1.60
2023-03-17T08:50:08.475Z,1.20
2023-03-17T08:52:38.558Z,1.33
2023-03-17T08:55:08.899Z,1.30
2023-03-17T08:57:37.930Z,1.00
2023-03-17T09:00:11.060Z,1.10
2023-03-17T09:02:39.614Z,1.10
2023-03-17T09:05:09.397Z,1.20
2023-03-17T09:07:39.069Z,1.30
2023-03-17T09:10:10.858Z,1.38
2023-03-17T09:12:39.450Z,1.20
2023-03-17T09:15:10.853Z,1.40
2023-03-17T09:17:39.252Z,1.25
2023-03-17T09:20:09.289Z,1.65
2023-03-17T09:22:38.895Z,1.35
2023-03-17T09:25:08.060Z,1.48
2023-03-17T09:27:36.362Z,1.35
2023-03-17T09:30:05.864Z,1.20
2023-03-17T09:32:34.097Z,1.10
2023-03-17T09:35:03.847Z,1.05
2023-03-17T09:37:32.412Z,1.00
2023-03-17T09:40:04.738Z,1.40
2023-03-17T09:42:44.298Z,1.10
2023-03-17T09:45:26.114Z,0.98
2023-03-17T09:48:12.990Z,1.00
2023-03-17T09:50:49.807Z,1.00
2023-03-17T09:53:22.902Z,1.17
2023-03-17T09:55:58.277Z,1.10
2023-03-17T09:58:33.187Z,1.17
2023-03-17T10:01:05.059Z,1.33
2023-03-17T10:03:34.168Z,1.08
2023-03-17T10:06:37.562Z,1.27
2023-03-17T10:09:27.274Z,0.90
2023-03-17T10:12:09.694Z,1.17
2023-03-17T10:14:59.451Z,0.90
2023-03-17T10:17:33.406Z,1.10
2023-03-17T10:20:11.318Z,1.10
2023-03-17T10:22:46.139Z,1.33
2023-03-17T10:25:18.189Z,1.10
2023-03-17T10:27:58.076Z,1.13
2023-03-17T10:30:27.365Z,0.85
2023-03-17T10:33:01.839Z,0.88
2023-03-17T10:35:35.898Z,0.82
2023-03-17T10:38:17.058Z,0.98
2023-03-17T10:40:48.839Z,1.23
2023-03-17T10:43:24.116Z,0.90
2023-03-17T10:46:04.489Z,0.75
2023-03-17T10:48:38.497Z,1.15
2023-03-17T10:51:11.101Z,1.02
2023-03-17T10:53:43.747Z,1.17
2023-03-17T10:56:24.986Z,1.27
2023-03-17T10:58:56.900Z,1.15
2023-03-17T11:01:36.646Z,1.17
2023-03-17T11:04:21.786Z,1.00
2023-03-17T11:06:52.396Z,0.90
2023-03-17T11:09:21.508Z,0.75
2023-03-17T11:12:05.148Z,0.88
2023-03-17T11:14:35.290Z,0.80
2023-03-17T11:17:17.630Z,1.13
2023-03-17T11:20:04.137Z,0.80
2023-03-17T11:22:40.007Z,0.95
2023-03-17T11:25:15.168Z,0.80
2023-03-17T11:27:49.987Z,1.00
2023-03-17T11:30:32.752Z,0.95
2023-03-17T11:33:14.640Z,1.20
2023-03-17T11:35:55.975Z,0.90
2023-03-17T11:38:28.179Z,1.08
2023-03-17T11:41:34.975Z,0.70
2023-03-17T11:44:40.236Z,0.80
2023-03-17T11:47:28.821Z,0.77
2023-03-17T11:50:08.669Z,0.90
2023-03-17T11:52:53.426Z,0.82
2023-03-17T11:55:28.441Z,0.60
2023-03-17T11:58:02.419Z,0.60
2023-03-17T12:00:35.192Z,0.70
2023-03-17T12:03:17.678Z,0.77
2023-03-17T12:05:52.068Z,0.68
2023-03-17T12:08:32.386Z,0.82
2023-03-17T12:11:06.634Z,0.50
2023-03-17T12:13:41.614Z,0.57
2023-03-17T12:16:17.306Z,0.82
2023-03-17T12:18:59.105Z,1.15
2023-03-17T12:21:36.849Z,0.77
2023-03-17T12:24:14.629Z,0.50
2023-03-17T12:26:55.959Z,0.80
2023-03-17T12:29:37.712Z,0.60
2023-03-17T12:32:15.471Z,0.70
2023-03-17T12:34:52.394Z,0.60
2023-03-17T12:37:22.600Z,0.60
2023-03-17T12:40:00.655Z,1.00
2023-03-17T12:42:43.400Z,0.70
2023-03-17T12:45:53.231Z,0.93
2023-03-17T12:49:14.542Z,0.50
2023-03-17T12:52:07.704Z,0.77
2023-03-17T12:54:39.619Z,0.70
2023-03-17T12:57:18.233Z,0.57
2023-03-17T12:59:50.278Z,0.80
2023-03-17T13:02:33.851Z,0.63
2023-03-17T13:05:08.048Z,0.40
2023-03-17T13:07:47.694Z,0.60
2023-03-17T13:10:39.869Z,0.50
2023-03-17T13:13:36.149Z,0.60
2023-03-17T13:16:06.842Z,0.65
2023-03-17T13:19:01.357Z,0.75
2023-03-17T13:21:32.909Z,0.70
2023-03-17T13:24:48.028Z,0.50
2023-03-17T13:27:48.333Z,0.77
2023-03-17T13:30:57.132Z,0.50
2023-03-17T13:33:32.815Z,0.50
2023-03-17T13:36:35.341Z,0.73
2023-03-17T13:39:45.933Z,0.70
2023-03-17T13:43:00.008Z,0.45
2023-03-17T13:45:38.585Z,0.65
2023-03-17T13:48:39.004Z,0.43
2023-03-17T13:51:21.995Z,0.50
2023-03-17T13:53:56.392Z,0.60
2023-03-17T13:56:30.340Z,0.77
2023-03-17T13:59:15.177Z,0.68
2023-03-17T14:01:51.201Z,0.70
2023-03-17T14:04:25.451Z,0.60
2023-03-17T14:07:00.470Z,0.47
2023-03-17T14:09:37.142Z,0.70
2023-03-17T14:12:14.056Z,0.65
2023-03-17T14:14:53.849Z,0.60
2023-03-17T14:17:27.023Z,0.80
2023-03-17T14:20:06.925Z,0.63
2023-03-17T14:22:44.935Z,0.77
2023-03-17T14:25:19.112Z,0.57
2023-03-17T14:27:52.977Z,0.80
2023-03-17T14:30:26.459Z,0.60
2023-03-17T14:33:04.850Z,0.68
2023-03-17T14:35:35.184Z,0.50
2023-03-17T14:38:04.303Z,0.80
2023-03-17T14:40:36.865Z,0.60
2023-03-17T14:43:05.466Z,0.80
2023-03-17T14:45:50.833Z,0.70
2023-03-17T14:48:26.576Z,0.57
2023-03-17T14:50:57.331Z,0.52
2023-03-17T14:53:26.338Z,0.60
2023-03-17T14:55:54.786Z,0.60
2023-03-17T14:58:28.335Z,0.90
2023-03-17T15:01:04.188Z,1.27
2023-03-17T15:03:38.462Z,1.48
2023-03-17T15:06:24.163Z,3.10
2023-03-17T15:08:53.672Z,0.57
2023-03-17T15:11:26.999Z,1.00
2023-03-17T15:14:06.943Z,0.55
2023-03-17T15:16:37.817Z,0.60
2023-03-17T15:19:10.215Z,0.70
2023-03-17T15:21:42.817Z,1.10
2023-03-17T15:24:40.745Z,0.80
2023-03-17T15:27:16.855Z,0.77
2023-03-17T15:29:45.250Z,0.60
2023-03-17T15:32:20.041Z,0.70
2023-03-17T15:34:49.446Z,0.57
2023-03-17T15:37:20.498Z,0.63
2023-03-17T15:39:50.566Z,1.10
2023-03-17T15:42:21.654Z,1.00
2023-03-17T15:44:49.809Z,0.85
2023-03-17T15:47:22.858Z,0.73
2023-03-17T15:49:52.499Z,0.73
2023-03-17T15:52:24.992Z,0.93
2023-03-17T15:54:54.768Z,0.80
2023-03-17T15:57:23.857Z,0.85
2023-03-17T15:59:52.581Z,0.82
2023-03-17T16:02:33.423Z,1.25
2023-03-17T16:05:06.248Z,1.20
2023-03-17T16:07:34.454Z,3.28
2023-03-17T16:10:02.743Z,5.65
2023-03-17T16:12:31.022Z,4.15
2023-03-17T16:15:00.704Z,3.35
2023-03-17T16:17:32.291Z,2.10
2023-03-17T16:20:01.327Z,1.30
2023-03-17T16:22:42.564Z,1.23
2023-03-17T16:25:25.945Z,1.10
2023-03-17T16:27:56.701Z,0.80
2023-03-17T16:30:30.057Z,1.30
2023-03-17T16:33:05.377Z,0.70
2023-03-17T16:35:33.558Z,1.02
2023-03-17T16:38:01.700Z,1.45
2023-03-17T16:40:36.479Z,1.00
2023-03-17T16:43:19.135Z,1.42
2023-03-17T16:45:55.349Z,1.50
2023-03-17T16:48:25.491Z,1.30
2023-03-17T16:50:55.161Z,1.40
2023-03-17T16:53:24.974Z,0.90
2023-03-17T16:55:55.017Z,4.53
2023-03-17T16:58:26.492Z,2.50
2023-03-17T17:01:00.288Z,1.17
2023-03-17T17:03:31.293Z,1.20
2023-03-17T17:05:59.720Z,1.05
2023-03-17T17:08:28.025Z,1.65
2023-03-17T17:10:57.271Z,1.85
2023-03-17T17:13:26.126Z,1.80
2023-03-17T17:15:56.203Z,1.70
2023-03-17T17:18:24.813Z,1.33
2023-03-17T17:20:56.672Z,1.25
2023-03-17T17:23:28.241Z,1.45
2023-03-17T17:25:56.628Z,1.75
2023-03-17T17:28:27.112Z,2.83
2023-03-17T17:30:55.538Z,2.75
2023-03-17T17:33:24.311Z,2.80
2023-03-17T17:35:54.340Z,2.40
2023-03-17T17:38:26.273Z,3.20
2023-03-17T17:40:56.432Z,6.28
2023-03-17T17:43:25.413Z,8.02
2023-03-17T17:45:54.345Z,8.15
2023-03-17T17:48:26.338Z,6.80
2023-03-17T17:50:57.703Z,6.80
2023-03-17T17:53:26.232Z,6.30
2023-03-17T17:55:54.456Z,6.47
2023-03-17T17:58:26.469Z,11.73
2023-03-17T18:00:56.900Z,9.95
2023-03-17T18:03:26.194Z,6.55
2023-03-17T18:05:59.021Z,6.00
2023-03-17T18:08:27.495Z,6.70
2023-03-17T18:10:58.668Z,6.63
2023-03-17T18:13:27.113Z,6.03
2023-03-17T18:15:55.297Z,5.60
2023-03-17T18:18:23.870Z,5.78
2023-03-17T18:20:53.809Z,7.68
2023-03-17T18:23:23.372Z,8.18
2023-03-17T18:25:51.992Z,6.97
2023-03-17T18:28:20.208Z,9.05
2023-03-17T18:30:48.507Z,11.02
2023-03-17T18:33:20.476Z,7.38
2023-03-17T18:35:52.091Z,7.38
2023-03-17T18:38:20.438Z,6.93
2023-03-17T18:40:50.119Z,5.35
2023-03-17T18:43:18.416Z,5.38
2023-03-17T18:45:46.848Z,6.03
2023-03-17T18:48:15.224Z,7.22
2023-03-17T18:50:43.693Z,7.38
2023-03-17T18:53:12.157Z,7.93
2023-03-17T18:55:41.087Z,6.85
2023-03-17T18:58:10.812Z,7.20
2023-03-17T19:00:39.316Z,7.90
2023-03-17T19:03:08.002Z,6.30
2023-03-17T19:05:39.418Z,6.78
2023-03-17T19:08:11.521Z,6.53
2023-03-17T19:10:43.006Z,6.38
2023-03-17T19:13:13.274Z,7.35
2023-03-17T19:15:42.115Z,6.32
2023-03-17T19:18:10.678Z,7.03
2023-03-17T19:20:38.928Z,6.40
2023-03-17T19:23:07.880Z,6.78
2023-03-17T19:25:36.810Z,6.63
2023-03-17T19:28:06.251Z,7.15
2023-03-17T19:30:35.985Z,7.38
2023-03-17T19:33:04.445Z,6.60
2023-03-17T19:35:33.002Z,7.05
2023-03-17T19:38:01.265Z,8.40
2023-03-17T19:40:29.537Z,7.70
2023-03-17T19:42:57.958Z,7.10
2023-03-17T19:45:26.282Z,7.10
2023-03-17T19:47:56.023Z,6.65
2023-03-17T19:50:24.553Z,6.10
2023-03-17T19:52:53.695Z,6.05
2023-03-17T19:55:24.565Z,5.60
2023-03-17T19:57:53.069Z,4.40
2023-03-17T20:00:22.598Z,4.13
2023-03-17T20:02:51.977Z,4.93
2023-03-17T20:05:21.797Z,6.80
2023-03-17T20:07:50.002Z,5.97
2023-03-17T20:10:18.759Z,4.35
2023-03-17T20:12:46.937Z,3.88
2023-03-17T20:15:16.409Z,3.30
2023-03-17T20:17:44.860Z,4.22
2023-03-17T20:20:15.374Z,4.97
2023-03-17T20:22:45.198Z,7.45
2023-03-17T20:25:13.654Z,6.82
2023-03-17T20:27:42.413Z,5.70
2023-03-17T20:30:13.099Z,4.60
2023-03-17T20:32:41.421Z,4.35
2023-03-17T20:35:10.349Z,4.70
2023-03-17T20:37:38.706Z,5.28
2023-03-17T20:40:10.696Z,6.88
2023-03-17T20:42:38.939Z,8.27
2023-03-17T20:45:08.857Z,7.82
2023-03-17T20:47:37.611Z,8.17
2023-03-17T20:50:08.595Z,7.65
2023-03-17T20:52:38.126Z,8.73
2023-03-17T20:55:09.233Z,9.52
2023-03-17T20:57:37.968Z,15.10
2023-03-17T21:00:08.208Z,14.73
2023-03-17T21:02:36.503Z,14.80
2023-03-17T21:05:05.327Z,14.37
2023-03-17T21:07:33.638Z,15.03
2023-03-17T21:10:02.296Z,13.70
2023-03-17T21:12:31.844Z,12.87
2023-03-17T21:15:00.707Z,12.63
2023-03-17T21:17:28.907Z,12.80
2023-03-17T21:19:57.085Z,12.68
2023-03-17T21:22:25.628Z,11.30
2023-03-17T21:24:54.185Z,12.13
2023-03-17T21:27:22.422Z,10.63
2023-03-17T21:29:52.164Z,9.33
2023-03-17T21:32:20.425Z,7.97
2023-03-17T21:34:48.556Z,6.77
2023-03-17T21:37:18.257Z,7.10
2023-03-17T21:39:46.578Z,6.37
2023-03-17T21:42:14.720Z,6.00
2023-03-17T21:44:45.622Z,5.07
2023-03-17T21:47:15.371Z,5.83
2023-03-17T21:49:43.473Z,5.47
2023-03-17T21:52:12.612Z,5.13
2023-03-17T21:54:40.802Z,4.97
2023-03-17T21:57:09.268Z,4.60
2023-03-17T21:59:37.708Z,4.33
2023-03-17T22:02:05.958Z,4.37
2023-03-17T22:04:35.481Z,4.70
2023-03-17T22:07:04.477Z,5.03
2023-03-17T22:09:32.647Z,4.23
2023-03-17T22:12:00.788Z,4.50
2023-03-17T22:14:28.973Z,4.00
2023-03-17T22:16:57.217Z,3.93
2023-03-17T22:19:25.555Z,4.37
2023-03-17T22:21:55.822Z,4.40
2023-03-17T22:24:25.391Z,4.33
2023-03-17T22:26:53.979Z,3.97
2023-03-17T22:29:22.151Z,4.83
2023-03-17T22:31:50.707Z,4.90
2023-03-17T22:34:19.289Z,6.10
2023-03-17T22:36:47.409Z,5.90
2023-03-17T22:39:17.324Z,6.33
2023-03-17T22:41:45.763Z,9.17
2023-03-17T22:44:14.066Z,10.33
2023-03-17T22:46:42.704Z,8.83
2023-03-17T22:49:11.483Z,10.23
2023-03-17T22:51:41.168Z,8.60
2023-03-17T22:54:11.260Z,8.40
2023-03-17T22:56:41.034Z,7.70
2023-03-17T22:59:09.206Z,7.07
2023-03-17T23:01:37.383Z,7.47
2023-03-17T23:04:07.693Z,7.47
2023-03-17T23:06:37.906Z,6.17
2023-03-17T23:09:06.284Z,6.43
2023-03-17T23:11:34.447Z,5.93
2023-03-17T23:14:04.373Z,7.33
2023-03-17T23:16:32.817Z,7.23
2023-03-17T23:19:01.175Z,6.40
2023-03-17T23:21:33.896Z,5.43
2023-03-17T23:24:03.869Z,6.63
2023-03-17T23:26:35.794Z,6.67
2023-03-17T23:29:06.918Z,6.97
2023-03-17T23:31:36.798Z,6.37
2023-03-17T23:34:06.612Z,6.20
2023-03-17T23:36:39.861Z,6.10
2023-03-17T23:39:09.670Z,6.30
2023-03-17T23:41:38.239Z,6.37
2023-03-17T23:44:08.372Z,5.70
2023-03-17T23:46:37.135Z,6.57
2023-03-17T23:49:07.172Z,6.40
2023-03-17T23:51:35.665Z,7.27
2023-03-17T23:54:04.074Z,5.60
2023-03-17T23:56:33.404Z,4.60
2023-03-17T23:59:01.628Z,4.43
